sensor_id;sensor_type;location;lat;lon;timestamp;temperature;humidity
18805;DHT22;9530;48.930;9.526;2022-12-11T00:01:08;0.50;99.90
18805;DHT22;9530;48.930;9.526;2022-12-11T00:03:35;0.50;99.90
18805;DHT22;9530;48.930;9.526;2022-12-11T00:06:05;0.50;99.90
18805;DHT22;9530;48.930;9.526;2022-12-11T00:08:32;0.50;99.90
18805;DHT22;9530;48.930;9.526;2022-12-11T00:10:59;0.40;99.90
18805;DHT22;9530;48.930;9.526;2022-12-11T00:13:26;0.40;99.90
18805;DHT22;9530;48.930;9.526;2022-12-11T00:15:53;0.40;99.90
18805;DHT22;9530;48.930;9.526;2022-12-11T00:18:20;0.40;99.90
18805;DHT22;9530;48.930;9.526;2022-12-11T00:20:47;0.40;99.90
18805;DHT22;9530;48.930;9.526;2022-12-11T00:23:15;0.50;99.90
18805;DHT22;9530;48.930;9.526;2022-12-11T00:25:41;0.50;99.90
18805;DHT22;9530;48.930;9.526;2022-12-11T00:28:09;0.50;99.90
18805;DHT22;9530;48.930;9.526;2022-12-11T00:30:38;0.30;99.90
18805;DHT22;9530;48.930;9.526;2022-12-11T00:33:05;0.30;99.90
18805;DHT22;9530;48.930;9.526;2022-12-11T00:35:31;0.30;99.90
18805;DHT22;9530;48.930;9.526;2022-12-11T00:37:58;0.30;99.90
18805;DHT22;9530;48.930;9.526;2022-12-11T00:40:26;0.30;99.90
18805;DHT22;9530;48.930;9.526;2022-12-11T00:42:53;0.20;99.90
18805;DHT22;9530;48.930;9.526;2022-12-11T00:45:19;0.20;99.90
18805;DHT22;9530;48.930;9.526;2022-12-11T00:47:46;0.20;99.90
18805;DHT22;9530;48.930;9.526;2022-12-11T00:50:13;0.20;99.90
18805;DHT22;9530;48.930;9.526;2022-12-11T00:52:40;0.20;99.90
18805;DHT22;9530;48.930;9.526;2022-12-11T00:55:06;0.20;99.90
18805;DHT22;9530;48.930;9.526;2022-12-11T00:57:35;0.20;99.90
18805;DHT22;9530;48.930;9.526;2022-12-11T01:00:03;0.20;99.90
18805;DHT22;9530;48.930;9.526;2022-12-11T01:02:31;0.20;99.90
18805;DHT22;9530;48.930;9.526;2022-12-11T01:04:58;0.10;99.90
18805;DHT22;9530;48.930;9.526;2022-12-11T01:07:25;0.10;99.90
18805;DHT22;9530;48.930;9.526;2022-12-11T01:09:52;0.20;99.90
18805;DHT22;9530;48.930;9.526;2022-12-11T01:12:37;0.20;99.90
18805;DHT22;9530;48.930;9.526;2022-12-11T01:15:05;0.20;99.90
18805;DHT22;9530;48.930;9.526;2022-12-11T01:17:32;0.10;99.90
18805;DHT22;9530;48.930;9.526;2022-12-11T01:19:59;0.10;99.90
18805;DHT22;9530;48.930;9.526;2022-12-11T01:22:25;0.00;99.90
18805;DHT22;9530;48.930;9.526;2022-12-11T01:24:52;0.00;99.90
18805;DHT22;9530;48.930;9.526;2022-12-11T01:27:19;0.00;99.90
18805;DHT22;9530;48.930;9.526;2022-12-11T01:29:47;-0.10;99.90
18805;DHT22;9530;48.930;9.526;2022-12-11T01:32:14;-0.10;99.90
18805;DHT22;9530;48.930;9.526;2022-12-11T01:34:41;-0.10;99.90
18805;DHT22;9530;48.930;9.526;2022-12-11T01:37:08;-0.10;99.90
18805;DHT22;9530;48.930;9.526;2022-12-11T01:39:35;-0.10;99.90
18805;DHT22;9530;48.930;9.526;2022-12-11T01:42:03;-0.10;99.90
18805;DHT22;9530;48.930;9.526;2022-12-11T01:47:55;0.10;99.90
18805;DHT22;9530;48.930;9.526;2022-12-11T01:50:23;0.10;99.90
18805;DHT22;9530;48.930;9.526;2022-12-11T01:52:50;0.00;99.90
18805;DHT22;9530;48.930;9.526;2022-12-11T01:55:18;0.10;99.90
18805;DHT22;9530;48.930;9.526;2022-12-11T01:57:48;0.20;99.90
18805;DHT22;9530;48.930;9.526;2022-12-11T02:00:17;0.10;99.90
18805;DHT22;9530;48.930;9.526;2022-12-11T02:02:44;0.10;99.90
18805;DHT22;9530;48.930;9.526;2022-12-11T02:05:12;0.10;99.90
18805;DHT22;9530;48.930;9.526;2022-12-11T02:07:44;0.10;99.90
18805;DHT22;9530;48.930;9.526;2022-12-11T02:10:11;0.10;99.90
18805;DHT22;9530;48.930;9.526;2022-12-11T02:12:44;0.20;99.90
18805;DHT22;9530;48.930;9.526;2022-12-11T02:15:21;0.20;99.90
18805;DHT22;9530;48.930;9.526;2022-12-11T02:17:55;0.10;99.90
18805;DHT22;9530;48.930;9.526;2022-12-11T02:20:29;0.10;99.90
18805;DHT22;9530;48.930;9.526;2022-12-11T02:23:19;0.10;99.90
18805;DHT22;9530;48.930;9.526;2022-12-11T02:25:55;0.10;99.90
18805;DHT22;9530;48.930;9.526;2022-12-11T02:28:29;0.10;99.90
18805;DHT22;9530;48.930;9.526;2022-12-11T02:30:59;0.10;99.90
18805;DHT22;9530;48.930;9.526;2022-12-11T02:33:33;0.10;99.90
18805;DHT22;9530;48.930;9.526;2022-12-11T02:36:02;0.10;99.90
18805;DHT22;9530;48.930;9.526;2022-12-11T02:38:32;0.10;99.90
18805;DHT22;9530;48.930;9.526;2022-12-11T02:41:02;0.10;99.90
18805;DHT22;9530;48.930;9.526;2022-12-11T02:43:33;0.10;99.90
18805;DHT22;9530;48.930;9.526;2022-12-11T02:46:03;0.10;99.90
18805;DHT22;9530;48.930;9.526;2022-12-11T02:48:32;0.10;99.90
18805;DHT22;9530;48.930;9.526;2022-12-11T02:51:00;0.10;99.90
18805;DHT22;9530;48.930;9.526;2022-12-11T02:53:30;0.10;99.90
18805;DHT22;9530;48.930;9.526;2022-12-11T02:56:03;0.10;99.90
18805;DHT22;9530;48.930;9.526;2022-12-11T02:58:34;0.10;99.90
18805;DHT22;9530;48.930;9.526;2022-12-11T03:01:03;0.10;99.90
18805;DHT22;9530;48.930;9.526;2022-12-11T03:03:30;0.10;99.90
18805;DHT22;9530;48.930;9.526;2022-12-11T03:05:57;0.10;99.90
18805;DHT22;9530;48.930;9.526;2022-12-11T03:08:23;0.10;99.90
18805;DHT22;9530;48.930;9.526;2022-12-11T03:10:50;0.10;99.90
18805;DHT22;9530;48.930;9.526;2022-12-11T03:13:19;0.10;99.90
18805;DHT22;9530;48.930;9.526;2022-12-11T03:15:58;0.10;99.90
18805;DHT22;9530;48.930;9.526;2022-12-11T03:18:32;0.10;99.90
18805;DHT22;9530;48.930;9.526;2022-12-11T03:21:04;0.20;99.90
18805;DHT22;9530;48.930;9.526;2022-12-11T03:23:36;0.30;99.90
18805;DHT22;9530;48.930;9.526;2022-12-11T03:26:10;0.30;99.90
18805;DHT22;9530;48.930;9.526;2022-12-11T03:28:42;0.20;99.90
18805;DHT22;9530;48.930;9.526;2022-12-11T03:31:15;0.10;99.90
18805;DHT22;9530;48.930;9.526;2022-12-11T03:33:47;0.20;99.90
18805;DHT22;9530;48.930;9.526;2022-12-11T03:36:18;0.20;99.90
18805;DHT22;9530;48.930;9.526;2022-12-11T03:38:49;0.10;99.90
18805;DHT22;9530;48.930;9.526;2022-12-11T03:41:19;0.10;99.90
18805;DHT22;9530;48.930;9.526;2022-12-11T03:43:48;0.20;99.90
18805;DHT22;9530;48.930;9.526;2022-12-11T03:46:21;0.10;99.90
18805;DHT22;9530;48.930;9.526;2022-12-11T03:48:48;0.10;99.90
18805;DHT22;9530;48.930;9.526;2022-12-11T03:51:16;0.10;99.90
18805;DHT22;9530;48.930;9.526;2022-12-11T03:53:44;0.10;99.90
18805;DHT22;9530;48.930;9.526;2022-12-11T03:56:13;0.10;99.90
18805;DHT22;9530;48.930;9.526;2022-12-11T03:58:41;0.10;99.90
18805;DHT22;9530;48.930;9.526;2022-12-11T04:01:08;0.20;99.90
18805;DHT22;9530;48.930;9.526;2022-12-11T04:03:37;0.20;99.90
18805;DHT22;9530;48.930;9.526;2022-12-11T04:06:04;0.20;99.90
18805;DHT22;9530;48.930;9.526;2022-12-11T04:08:31;0.20;99.90
18805;DHT22;9530;48.930;9.526;2022-12-11T04:10:57;0.20;99.90
18805;DHT22;9530;48.930;9.526;2022-12-11T04:13:41;0.20;99.90
18805;DHT22;9530;48.930;9.526;2022-12-11T04:16:08;0.20;99.90
18805;DHT22;9530;48.930;9.526;2022-12-11T04:18:34;0.10;99.90
18805;DHT22;9530;48.930;9.526;2022-12-11T04:21:19;0.20;99.90
18805;DHT22;9530;48.930;9.526;2022-12-11T04:24:04;0.10;99.90
18805;DHT22;9530;48.930;9.526;2022-12-11T04:26:44;0.10;99.90
18805;DHT22;9530;48.930;9.526;2022-12-11T04:29:11;0.10;99.90
18805;DHT22;9530;48.930;9.526;2022-12-11T04:31:38;0.10;99.90
18805;DHT22;9530;48.930;9.526;2022-12-11T04:34:05;0.10;99.90
18805;DHT22;9530;48.930;9.526;2022-12-11T04:36:33;0.10;99.90
18805;DHT22;9530;48.930;9.526;2022-12-11T04:39:00;0.10;99.90
18805;DHT22;9530;48.930;9.526;2022-12-11T04:41:27;0.10;99.90
18805;DHT22;9530;48.930;9.526;2022-12-11T04:43:54;0.10;99.90
18805;DHT22;9530;48.930;9.526;2022-12-11T04:46:22;0.10;99.90
18805;DHT22;9530;48.930;9.526;2022-12-11T04:48:50;0.10;99.90
18805;DHT22;9530;48.930;9.526;2022-12-11T04:51:17;0.00;99.90
18805;DHT22;9530;48.930;9.526;2022-12-11T04:53:46;0.00;99.90
18805;DHT22;9530;48.930;9.526;2022-12-11T04:56:14;0.10;99.90
18805;DHT22;9530;48.930;9.526;2022-12-11T04:58:42;0.10;99.90
18805;DHT22;9530;48.930;9.526;2022-12-11T05:01:10;0.00;99.90
18805;DHT22;9530;48.930;9.526;2022-12-11T05:03:37;0.10;99.90
18805;DHT22;9530;48.930;9.526;2022-12-11T05:06:04;0.10;99.90
18805;DHT22;9530;48.930;9.526;2022-12-11T05:08:33;0.20;99.90
18805;DHT22;9530;48.930;9.526;2022-12-11T05:11:03;0.20;99.90
18805;DHT22;9530;48.930;9.526;2022-12-11T05:13:30;0.20;99.90
18805;DHT22;9530;48.930;9.526;2022-12-11T05:15:57;0.20;99.90
18805;DHT22;9530;48.930;9.526;2022-12-11T05:18:24;0.10;99.90
18805;DHT22;9530;48.930;9.526;2022-12-11T05:20:55;0.20;99.90
18805;DHT22;9530;48.930;9.526;2022-12-11T05:23:22;0.10;99.90
18805;DHT22;9530;48.930;9.526;2022-12-11T05:25:53;0.10;99.90
18805;DHT22;9530;48.930;9.526;2022-12-11T05:28:21;0.10;99.90
18805;DHT22;9530;48.930;9.526;2022-12-11T05:30:54;0.10;99.90
18805;DHT22;9530;48.930;9.526;2022-12-11T05:33:20;0.00;99.90
18805;DHT22;9530;48.930;9.526;2022-12-11T05:35:47;0.00;99.90
18805;DHT22;9530;48.930;9.526;2022-12-11T05:38:14;0.20;99.90
18805;DHT22;9530;48.930;9.526;2022-12-11T05:40:41;0.10;99.90
18805;DHT22;9530;48.930;9.526;2022-12-11T05:43:07;0.20;99.90
18805;DHT22;9530;48.930;9.526;2022-12-11T05:45:36;0.10;99.90
18805;DHT22;9530;48.930;9.526;2022-12-11T05:48:03;0.10;99.90
18805;DHT22;9530;48.930;9.526;2022-12-11T05:50:30;0.10;99.90
18805;DHT22;9530;48.930;9.526;2022-12-11T05:52:57;0.10;99.90
18805;DHT22;9530;48.930;9.526;2022-12-11T05:55:24;0.00;99.90
18805;DHT22;9530;48.930;9.526;2022-12-11T05:57:50;0.10;99.90
18805;DHT22;9530;48.930;9.526;2022-12-11T06:00:17;0.10;99.90
18805;DHT22;9530;48.930;9.526;2022-12-11T06:02:45;0.00;99.90
18805;DHT22;9530;48.930;9.526;2022-12-11T06:05:12;-0.10;99.90
18805;DHT22;9530;48.930;9.526;2022-12-11T06:07:39;-0.10;99.90
18805;DHT22;9530;48.930;9.526;2022-12-11T06:10:06;-0.10;99.90
18805;DHT22;9530;48.930;9.526;2022-12-11T06:12:33;-0.10;99.90
18805;DHT22;9530;48.930;9.526;2022-12-11T06:15:00;-0.10;99.90
18805;DHT22;9530;48.930;9.526;2022-12-11T06:17:27;-0.10;99.90
18805;DHT22;9530;48.930;9.526;2022-12-11T06:19:55;-0.10;99.90
18805;DHT22;9530;48.930;9.526;2022-12-11T06:22:22;-0.10;99.90
18805;DHT22;9530;48.930;9.526;2022-12-11T06:24:48;-0.10;99.90
18805;DHT22;9530;48.930;9.526;2022-12-11T06:27:15;-0.10;99.90
18805;DHT22;9530;48.930;9.526;2022-12-11T06:29:43;-0.10;99.90
18805;DHT22;9530;48.930;9.526;2022-12-11T06:32:11;-0.20;99.90
18805;DHT22;9530;48.930;9.526;2022-12-11T06:34:38;-0.10;99.90
18805;DHT22;9530;48.930;9.526;2022-12-11T06:37:06;-0.10;99.90
18805;DHT22;9530;48.930;9.526;2022-12-11T06:39:33;-0.10;99.90
18805;DHT22;9530;48.930;9.526;2022-12-11T06:41:59;-0.20;99.90
18805;DHT22;9530;48.930;9.526;2022-12-11T06:44:26;-0.20;99.90
18805;DHT22;9530;48.930;9.526;2022-12-11T06:46:53;-0.30;99.90
18805;DHT22;9530;48.930;9.526;2022-12-11T06:49:20;-0.40;99.90
18805;DHT22;9530;48.930;9.526;2022-12-11T06:51:46;-0.40;99.90
18805;DHT22;9530;48.930;9.526;2022-12-11T06:54:15;-0.50;99.90
18805;DHT22;9530;48.930;9.526;2022-12-11T06:56:42;-0.50;99.90
18805;DHT22;9530;48.930;9.526;2022-12-11T06:59:10;-0.50;99.90
18805;DHT22;9530;48.930;9.526;2022-12-11T07:01:37;-0.40;99.90
18805;DHT22;9530;48.930;9.526;2022-12-11T07:04:05;-0.30;99.90
18805;DHT22;9530;48.930;9.526;2022-12-11T07:06:32;-0.10;99.90
18805;DHT22;9530;48.930;9.526;2022-12-11T07:08:58;-0.10;99.90
18805;DHT22;9530;48.930;9.526;2022-12-11T07:11:26;0.00;99.90
18805;DHT22;9530;48.930;9.526;2022-12-11T07:13:53;0.10;99.90
18805;DHT22;9530;48.930;9.526;2022-12-11T07:16:20;0.10;99.90
18805;DHT22;9530;48.930;9.526;2022-12-11T07:18:48;0.10;99.90
18805;DHT22;9530;48.930;9.526;2022-12-11T07:21:15;0.10;99.90
18805;DHT22;9530;48.930;9.526;2022-12-11T07:23:42;0.10;99.90
18805;DHT22;9530;48.930;9.526;2022-12-11T07:26:10;0.20;99.90
18805;DHT22;9530;48.930;9.526;2022-12-11T07:28:39;0.20;99.90
18805;DHT22;9530;48.930;9.526;2022-12-11T07:31:07;0.20;99.90
18805;DHT22;9530;48.930;9.526;2022-12-11T07:33:34;0.20;99.90
18805;DHT22;9530;48.930;9.526;2022-12-11T07:36:01;0.20;99.90
18805;DHT22;9530;48.930;9.526;2022-12-11T07:38:28;0.20;99.90
18805;DHT22;9530;48.930;9.526;2022-12-11T07:40:55;0.20;99.90
18805;DHT22;9530;48.930;9.526;2022-12-11T07:43:25;0.20;99.90
18805;DHT22;9530;48.930;9.526;2022-12-11T07:45:53;0.20;99.90
18805;DHT22;9530;48.930;9.526;2022-12-11T07:48:20;0.20;99.90
18805;DHT22;9530;48.930;9.526;2022-12-11T07:50:46;0.30;99.90
18805;DHT22;9530;48.930;9.526;2022-12-11T07:53:13;0.20;99.90
18805;DHT22;9530;48.930;9.526;2022-12-11T07:55:40;0.30;99.90
18805;DHT22;9530;48.930;9.526;2022-12-11T07:58:07;0.30;99.90
18805;DHT22;9530;48.930;9.526;2022-12-11T08:00:33;0.20;99.90
18805;DHT22;9530;48.930;9.526;2022-12-11T08:03:01;0.20;99.90
18805;DHT22;9530;48.930;9.526;2022-12-11T08:05:28;0.30;99.90
18805;DHT22;9530;48.930;9.526;2022-12-11T08:07:55;0.30;99.90
18805;DHT22;9530;48.930;9.526;2022-12-11T08:10:22;0.30;99.90
18805;DHT22;9530;48.930;9.526;2022-12-11T08:12:48;0.30;99.90
18805;DHT22;9530;48.930;9.526;2022-12-11T08:15:15;0.30;99.90
18805;DHT22;9530;48.930;9.526;2022-12-11T08:17:42;0.30;99.90
18805;DHT22;9530;48.930;9.526;2022-12-11T08:20:10;0.30;99.90
18805;DHT22;9530;48.930;9.526;2022-12-11T08:22:37;0.30;99.90
18805;DHT22;9530;48.930;9.526;2022-12-11T08:25:05;0.30;99.90
18805;DHT22;9530;48.930;9.526;2022-12-11T08:27:31;0.40;99.90
18805;DHT22;9530;48.930;9.526;2022-12-11T08:29:58;0.30;99.90
18805;DHT22;9530;48.930;9.526;2022-12-11T08:32:25;0.20;99.90
18805;DHT22;9530;48.930;9.526;2022-12-11T08:34:53;0.20;99.90
18805;DHT22;9530;48.930;9.526;2022-12-11T08:37:21;0.30;99.90
18805;DHT22;9530;48.930;9.526;2022-12-11T08:39:47;0.40;99.90
18805;DHT22;9530;48.930;9.526;2022-12-11T08:42:14;0.50;99.90
18805;DHT22;9530;48.930;9.526;2022-12-11T08:44:41;0.50;99.90
18805;DHT22;9530;48.930;9.526;2022-12-11T08:47:08;0.60;99.90
18805;DHT22;9530;48.930;9.526;2022-12-11T08:49:35;0.70;99.90
18805;DHT22;9530;48.930;9.526;2022-12-11T08:52:02;0.80;99.90
18805;DHT22;9530;48.930;9.526;2022-12-11T08:54:31;0.80;99.90
18805;DHT22;9530;48.930;9.526;2022-12-11T08:56:57;0.80;99.90
18805;DHT22;9530;48.930;9.526;2022-12-11T08:59:24;0.70;99.90
18805;DHT22;9530;48.930;9.526;2022-12-11T09:01:51;0.60;99.90
18805;DHT22;9530;48.930;9.526;2022-12-11T09:04:18;0.70;99.90
18805;DHT22;9530;48.930;9.526;2022-12-11T09:06:45;0.80;99.90
18805;DHT22;9530;48.930;9.526;2022-12-11T09:09:11;0.80;99.90
18805;DHT22;9530;48.930;9.526;2022-12-11T09:11:40;0.90;99.90
18805;DHT22;9530;48.930;9.526;2022-12-11T09:14:07;0.90;99.90
18805;DHT22;9530;48.930;9.526;2022-12-11T09:16:35;0.90;99.90
18805;DHT22;9530;48.930;9.526;2022-12-11T09:19:06;0.90;99.90
18805;DHT22;9530;48.930;9.526;2022-12-11T09:21:33;0.80;99.90
18805;DHT22;9530;48.930;9.526;2022-12-11T09:24:00;0.80;99.90
18805;DHT22;9530;48.930;9.526;2022-12-11T09:26:28;0.80;99.90
18805;DHT22;9530;48.930;9.526;2022-12-11T09:28:57;0.80;99.90
18805;DHT22;9530;48.930;9.526;2022-12-11T09:31:25;0.80;99.90
18805;DHT22;9530;48.930;9.526;2022-12-11T09:33:54;0.80;99.90
18805;DHT22;9530;48.930;9.526;2022-12-11T09:36:22;0.80;99.90
18805;DHT22;9530;48.930;9.526;2022-12-11T09:38:49;0.80;99.90
18805;DHT22;9530;48.930;9.526;2022-12-11T09:41:37;1.00;99.90
18805;DHT22;9530;48.930;9.526;2022-12-11T09:44:20;1.00;99.90
18805;DHT22;9530;48.930;9.526;2022-12-11T09:46:50;1.10;99.90
18805;DHT22;9530;48.930;9.526;2022-12-11T09:49:24;1.00;99.90
18805;DHT22;9530;48.930;9.526;2022-12-11T09:52:00;1.00;99.90
18805;DHT22;9530;48.930;9.526;2022-12-11T09:54:31;1.10;99.90
18805;DHT22;9530;48.930;9.526;2022-12-11T09:57:05;1.10;99.90
18805;DHT22;9530;48.930;9.526;2022-12-11T09:59:43;1.10;99.90
18805;DHT22;9530;48.930;9.526;2022-12-11T10:02:24;1.00;99.90
18805;DHT22;9530;48.930;9.526;2022-12-11T10:04:59;0.90;99.90
18805;DHT22;9530;48.930;9.526;2022-12-11T10:07:35;0.90;99.90
18805;DHT22;9530;48.930;9.526;2022-12-11T10:10:11;0.90;99.90
18805;DHT22;9530;48.930;9.526;2022-12-11T10:12:47;0.80;99.90
18805;DHT22;9530;48.930;9.526;2022-12-11T10:15:32;0.80;99.90
18805;DHT22;9530;48.930;9.526;2022-12-11T10:18:00;0.90;99.90
18805;DHT22;9530;48.930;9.526;2022-12-11T10:20:31;0.90;99.90
18805;DHT22;9530;48.930;9.526;2022-12-11T10:23:02;0.90;99.90
18805;DHT22;9530;48.930;9.526;2022-12-11T10:25:31;0.90;99.90
18805;DHT22;9530;48.930;9.526;2022-12-11T10:28:09;0.80;99.90
18805;DHT22;9530;48.930;9.526;2022-12-11T10:30:42;0.80;99.90
18805;DHT22;9530;48.930;9.526;2022-12-11T10:33:16;0.90;99.90
18805;DHT22;9530;48.930;9.526;2022-12-11T10:35:47;0.90;99.90
18805;DHT22;9530;48.930;9.526;2022-12-11T10:38:20;0.90;99.90
18805;DHT22;9530;48.930;9.526;2022-12-11T10:40:49;0.80;99.90
18805;DHT22;9530;48.930;9.526;2022-12-11T10:43:16;0.90;99.90
18805;DHT22;9530;48.930;9.526;2022-12-11T10:45:51;0.90;99.90
18805;DHT22;9530;48.930;9.526;2022-12-11T10:48:17;0.90;99.90
18805;DHT22;9530;48.930;9.526;2022-12-11T10:50:55;0.90;99.90
18805;DHT22;9530;48.930;9.526;2022-12-11T10:53:23;1.00;99.90
18805;DHT22;9530;48.930;9.526;2022-12-11T10:55:50;1.00;99.90
18805;DHT22;9530;48.930;9.526;2022-12-11T10:58:19;1.00;99.90
18805;DHT22;9530;48.930;9.526;2022-12-11T11:00:58;1.10;99.90
18805;DHT22;9530;48.930;9.526;2022-12-11T11:03:27;1.20;99.90
18805;DHT22;9530;48.930;9.526;2022-12-11T11:06:02;1.20;99.90
18805;DHT22;9530;48.930;9.526;2022-12-11T11:08:38;1.20;99.90
18805;DHT22;9530;48.930;9.526;2022-12-11T11:11:05;1.20;99.90
18805;DHT22;9530;48.930;9.526;2022-12-11T11:13:33;1.20;99.90
18805;DHT22;9530;48.930;9.526;2022-12-11T11:16:03;1.30;99.90
18805;DHT22;9530;48.930;9.526;2022-12-11T11:18:30;1.50;99.90
18805;DHT22;9530;48.930;9.526;2022-12-11T11:20:58;1.60;99.90
18805;DHT22;9530;48.930;9.526;2022-12-11T11:23:25;1.60;99.90
18805;DHT22;9530;48.930;9.526;2022-12-11T11:25:54;1.50;99.90
18805;DHT22;9530;48.930;9.526;2022-12-11T11:28:23;1.60;99.90
18805;DHT22;9530;48.930;9.526;2022-12-11T11:30:58;1.50;99.90
18805;DHT22;9530;48.930;9.526;2022-12-11T11:33:27;1.40;99.90
18805;DHT22;9530;48.930;9.526;2022-12-11T11:35:56;1.40;99.90
18805;DHT22;9530;48.930;9.526;2022-12-11T11:38:25;1.50;99.90
18805;DHT22;9530;48.930;9.526;2022-12-11T11:40:57;1.40;99.90
18805;DHT22;9530;48.930;9.526;2022-12-11T11:43:31;1.50;99.90
18805;DHT22;9530;48.930;9.526;2022-12-11T11:46:04;1.50;99.90
18805;DHT22;9530;48.930;9.526;2022-12-11T11:48:37;1.50;99.90
18805;DHT22;9530;48.930;9.526;2022-12-11T11:51:12;1.40;99.90
18805;DHT22;9530;48.930;9.526;2022-12-11T11:53:40;1.40;99.90
18805;DHT22;9530;48.930;9.526;2022-12-11T11:56:17;1.10;99.90
18805;DHT22;9530;48.930;9.526;2022-12-11T11:58:51;1.20;99.90
18805;DHT22;9530;48.930;9.526;2022-12-11T12:01:20;1.10;99.90
18805;DHT22;9530;48.930;9.526;2022-12-11T12:03:49;1.10;99.90
18805;DHT22;9530;48.930;9.526;2022-12-11T12:06:25;1.10;99.90
18805;DHT22;9530;48.930;9.526;2022-12-11T12:08:59;1.00;99.90
18805;DHT22;9530;48.930;9.526;2022-12-11T12:11:32;1.00;99.90
18805;DHT22;9530;48.930;9.526;2022-12-11T12:14:07;0.80;99.90
18805;DHT22;9530;48.930;9.526;2022-12-11T12:16:49;0.90;99.90
18805;DHT22;9530;48.930;9.526;2022-12-11T12:19:40;1.10;99.90
18805;DHT22;9530;48.930;9.526;2022-12-11T12:22:19;1.30;99.90
18805;DHT22;9530;48.930;9.526;2022-12-11T12:24:52;1.30;99.90
18805;DHT22;9530;48.930;9.526;2022-12-11T12:27:25;1.30;99.90
18805;DHT22;9530;48.930;9.526;2022-12-11T12:30:01;1.40;99.90
18805;DHT22;9530;48.930;9.526;2022-12-11T12:32:34;1.40;99.90
18805;DHT22;9530;48.930;9.526;2022-12-11T12:35:11;1.50;99.90
18805;DHT22;9530;48.930;9.526;2022-12-11T12:37:50;1.40;99.90
18805;DHT22;9530;48.930;9.526;2022-12-11T12:40:27;1.40;99.90
18805;DHT22;9530;48.930;9.526;2022-12-11T12:43:03;1.60;99.90
18805;DHT22;9530;48.930;9.526;2022-12-11T12:45:34;1.50;99.90
18805;DHT22;9530;48.930;9.526;2022-12-11T12:48:06;1.50;99.90
18805;DHT22;9530;48.930;9.526;2022-12-11T12:50:37;1.50;99.90
18805;DHT22;9530;48.930;9.526;2022-12-11T12:53:04;1.50;99.90
18805;DHT22;9530;48.930;9.526;2022-12-11T12:55:32;1.50;99.90
18805;DHT22;9530;48.930;9.526;2022-12-11T12:58:02;1.60;99.90
18805;DHT22;9530;48.930;9.526;2022-12-11T13:00:32;1.60;99.90
18805;DHT22;9530;48.930;9.526;2022-12-11T13:03:02;1.50;99.90
18805;DHT22;9530;48.930;9.526;2022-12-11T13:05:40;1.50;99.90
18805;DHT22;9530;48.930;9.526;2022-12-11T13:08:09;1.40;99.90
18805;DHT22;9530;48.930;9.526;2022-12-11T13:10:37;1.30;99.90
18805;DHT22;9530;48.930;9.526;2022-12-11T13:13:30;1.30;99.90
18805;DHT22;9530;48.930;9.526;2022-12-11T13:18:47;1.20;99.90
18805;DHT22;9530;48.930;9.526;2022-12-11T13:21:28;1.10;99.90
18805;DHT22;9530;48.930;9.526;2022-12-11T13:24:11;0.90;99.90
18805;DHT22;9530;48.930;9.526;2022-12-11T13:26:39;0.70;99.90
18805;DHT22;9530;48.930;9.526;2022-12-11T13:29:27;0.80;99.90
18805;DHT22;9530;48.930;9.526;2022-12-11T13:31:56;0.90;99.90
18805;DHT22;9530;48.930;9.526;2022-12-11T13:34:23;0.90;99.90
18805;DHT22;9530;48.930;9.526;2022-12-11T13:36:53;0.80;99.90
18805;DHT22;9530;48.930;9.526;2022-12-11T13:39:23;0.80;99.90
18805;DHT22;9530;48.930;9.526;2022-12-11T13:41:53;0.80;99.90
18805;DHT22;9530;48.930;9.526;2022-12-11T13:44:23;0.90;99.90
18805;DHT22;9530;48.930;9.526;2022-12-11T13:46:52;0.90;99.90
18805;DHT22;9530;48.930;9.526;2022-12-11T13:49:22;0.90;99.90
18805;DHT22;9530;48.930;9.526;2022-12-11T13:51:56;0.90;99.90
18805;DHT22;9530;48.930;9.526;2022-12-11T13:54:24;0.80;99.90
18805;DHT22;9530;48.930;9.526;2022-12-11T13:57:00;0.80;99.90
18805;DHT22;9530;48.930;9.526;2022-12-11T13:59:32;0.80;99.90
18805;DHT22;9530;48.930;9.526;2022-12-11T14:02:08;0.60;99.90
18805;DHT22;9530;48.930;9.526;2022-12-11T14:04:38;0.70;99.90
18805;DHT22;9530;48.930;9.526;2022-12-11T14:07:07;0.70;99.90
18805;DHT22;9530;48.930;9.526;2022-12-11T14:09:37;0.70;99.90
18805;DHT22;9530;48.930;9.526;2022-12-11T14:12:05;0.80;99.90
18805;DHT22;9530;48.930;9.526;2022-12-11T14:14:40;0.80;99.90
18805;DHT22;9530;48.930;9.526;2022-12-11T14:17:10;0.80;99.90
18805;DHT22;9530;48.930;9.526;2022-12-11T14:19:39;0.70;99.90
18805;DHT22;9530;48.930;9.526;2022-12-11T14:22:18;0.70;99.90
18805;DHT22;9530;48.930;9.526;2022-12-11T14:24:49;0.80;99.90
18805;DHT22;9530;48.930;9.526;2022-12-11T14:27:17;0.70;99.90
18805;DHT22;9530;48.930;9.526;2022-12-11T14:29:44;0.70;99.90
18805;DHT22;9530;48.930;9.526;2022-12-11T14:32:17;0.60;99.90
18805;DHT22;9530;48.930;9.526;2022-12-11T14:34:47;0.40;99.90
18805;DHT22;9530;48.930;9.526;2022-12-11T14:37:16;0.40;99.90
18805;DHT22;9530;48.930;9.526;2022-12-11T14:39:49;0.40;99.90
18805;DHT22;9530;48.930;9.526;2022-12-11T14:42:19;0.50;99.90
18805;DHT22;9530;48.930;9.526;2022-12-11T14:44:49;0.50;99.90
18805;DHT22;9530;48.930;9.526;2022-12-11T14:47:19;0.40;99.90
18805;DHT22;9530;48.930;9.526;2022-12-11T14:49:49;0.30;99.90
18805;DHT22;9530;48.930;9.526;2022-12-11T14:52:20;0.30;99.90
18805;DHT22;9530;48.930;9.526;2022-12-11T14:54:51;0.20;99.90
18805;DHT22;9530;48.930;9.526;2022-12-11T14:57:22;0.30;99.90
18805;DHT22;9530;48.930;9.526;2022-12-11T14:59:51;0.30;99.90
18805;DHT22;9530;48.930;9.526;2022-12-11T15:02:26;0.20;99.90
18805;DHT22;9530;48.930;9.526;2022-12-11T15:05:09;0.20;99.90
18805;DHT22;9530;48.930;9.526;2022-12-11T15:07:39;0.10;99.90
18805;DHT22;9530;48.930;9.526;2022-12-11T15:10:19;-0.20;99.90
18805;DHT22;9530;48.930;9.526;2022-12-11T15:12:46;-0.20;99.90
18805;DHT22;9530;48.930;9.526;2022-12-11T15:15:14;-0.10;99.90
18805;DHT22;9530;48.930;9.526;2022-12-11T15:17:42;-0.10;99.90
18805;DHT22;9530;48.930;9.526;2022-12-11T15:20:10;-0.20;99.90
18805;DHT22;9530;48.930;9.526;2022-12-11T15:22:47;-0.10;99.90
18805;DHT22;9530;48.930;9.526;2022-12-11T15:25:18;0.00;99.90
18805;DHT22;9530;48.930;9.526;2022-12-11T15:27:49;0.00;99.90
18805;DHT22;9530;48.930;9.526;2022-12-11T15:30:29;0.00;99.90
18805;DHT22;9530;48.930;9.526;2022-12-11T15:33:04;0.00;99.90
18805;DHT22;9530;48.930;9.526;2022-12-11T15:35:54;0.00;99.90
18805;DHT22;9530;48.930;9.526;2022-12-11T15:38:31;-0.20;99.90
18805;DHT22;9530;48.930;9.526;2022-12-11T15:40:58;0.00;99.90
18805;DHT22;9530;48.930;9.526;2022-12-11T15:43:26;0.10;99.90
18805;DHT22;9530;48.930;9.526;2022-12-11T15:45:53;0.10;99.90
18805;DHT22;9530;48.930;9.526;2022-12-11T15:48:20;-0.10;99.90
18805;DHT22;9530;48.930;9.526;2022-12-11T15:50:47;-0.10;99.90
18805;DHT22;9530;48.930;9.526;2022-12-11T15:53:14;0.10;99.90
18805;DHT22;9530;48.930;9.526;2022-12-11T15:55:42;0.20;99.90
18805;DHT22;9530;48.930;9.526;2022-12-11T15:58:14;0.30;99.90
18805;DHT22;9530;48.930;9.526;2022-12-11T16:00:42;0.40;99.90
18805;DHT22;9530;48.930;9.526;2022-12-11T16:03:11;0.40;99.90
18805;DHT22;9530;48.930;9.526;2022-12-11T16:05:39;0.40;99.90
18805;DHT22;9530;48.930;9.526;2022-12-11T16:08:06;0.40;99.90
18805;DHT22;9530;48.930;9.526;2022-12-11T16:10:33;0.30;99.90
18805;DHT22;9530;48.930;9.526;2022-12-11T16:13:01;0.20;99.90
18805;DHT22;9530;48.930;9.526;2022-12-11T16:15:28;0.20;99.90
18805;DHT22;9530;48.930;9.526;2022-12-11T16:17:59;0.00;99.90
18805;DHT22;9530;48.930;9.526;2022-12-11T16:20:26;0.10;99.90
18805;DHT22;9530;48.930;9.526;2022-12-11T16:22:52;0.10;99.90